createdAt,value
2017-12-04T00:00:17.359Z,1012.2
2017-12-04T00:01:17.381Z,1012.1
2017-12-04T00:02:17.401Z,1012.11
2017-12-04T00:03:17.405Z,1012.05
2017-12-04T00:04:17.432Z,1011.97
2017-12-04T00:06:17.451Z,1012.02
2017-12-04T00:07:17.475Z,1012.1
2017-12-04T00:08:17.480Z,1012.09
2017-12-04T00:09:17.502Z,1012.21
2017-12-04T00:10:17.510Z,1012.22
2017-12-04T00:11:17.525Z,1012.22
2017-12-04T00:12:17.545Z,1012.25
2017-12-04T00:13:17.560Z,1012.23
2017-12-04T00:14:17.580Z,1012.18
2017-12-04T00:15:17.609Z,1012.16
2017-12-04T00:16:17.606Z,1012.13
2017-12-04T00:17:17.627Z,1012.19
2017-12-04T00:18:17.634Z,1012.15
2017-12-04T00:19:17.656Z,1012.18
2017-12-04T00:20:17.670Z,1012.1
2017-12-04T00:22:17.702Z,1012.04
2017-12-04T00:23:17.709Z,1012.1
2017-12-04T00:24:17.721Z,1012.09
2017-12-04T00:25:17.746Z,1012.15
2017-12-04T00:26:17.752Z,1012.13
2017-12-04T00:27:17.769Z,1012.17
2017-12-04T00:28:17.782Z,1012.18
2017-12-04T00:29:17.863Z,1012.21
2017-12-04T00:30:17.822Z,1012.25
2017-12-04T00:31:17.838Z,1012.18
2017-12-04T00:32:17.853Z,1012.16
2017-12-04T00:33:17.864Z,1012.18
2017-12-04T00:34:17.879Z,1012.15
2017-12-04T00:35:17.888Z,1012.23
2017-12-04T00:36:17.909Z,1012.2
2017-12-04T00:38:17.940Z,1012.17
2017-12-04T00:39:17.948Z,1012.17
2017-12-04T00:40:17.974Z,1012.23
2017-12-04T00:41:17.984Z,1012.24
2017-12-04T00:42:17.999Z,1012.25
2017-12-04T00:43:18.020Z,1012.25
2017-12-04T00:44:18.031Z,1012.22
2017-12-04T00:45:18.045Z,1012.27
2017-12-04T00:46:18.062Z,1012.3
2017-12-04T00:47:18.069Z,1012.32
2017-12-04T00:48:18.095Z,1012.42
2017-12-04T00:49:18.112Z,1012.42
2017-12-04T00:50:18.122Z,1012.44
2017-12-04T00:51:18.137Z,1012.47
2017-12-04T00:53:18.162Z,1012.41
2017-12-04T00:54:18.178Z,1012.49
2017-12-04T00:55:18.196Z,1012.43
2017-12-04T00:56:18.214Z,1012.46
2017-12-04T00:57:18.234Z,1012.5
2017-12-04T00:58:18.242Z,1012.51
2017-12-04T00:59:18.257Z,1012.47
2017-12-04T01:00:18.268Z,1012.49
2017-12-04T01:01:18.290Z,1012.47
2017-12-04T01:02:18.302Z,1012.49
2017-12-04T01:03:18.325Z,1012.45
2017-12-04T01:04:18.335Z,1012.5
2017-12-04T01:05:18.344Z,1012.46
2017-12-04T01:06:18.361Z,1012.49
2017-12-04T01:07:18.376Z,1012.5
2017-12-04T01:08:18.390Z,1012.46
2017-12-04T01:09:18.409Z,1012.47
2017-12-04T01:10:18.425Z,1012.54
2017-12-04T01:11:18.440Z,1012.55
2017-12-04T01:12:18.458Z,1012.53
2017-12-04T01:13:18.467Z,1012.52
2017-12-04T01:14:18.493Z,1012.52
2017-12-04T01:15:18.497Z,1012.54
2017-12-04T01:16:18.521Z,1012.55
2017-12-04T01:17:18.527Z,1012.59
2017-12-04T01:18:18.553Z,1012.6
2017-12-04T01:19:18.568Z,1012.52
2017-12-04T01:20:18.576Z,1012.59
2017-12-04T01:21:18.605Z,1012.53
2017-12-04T01:22:18.604Z,1012.54
2017-12-04T01:23:18.623Z,1012.54
2017-12-04T01:25:18.654Z,1012.54
2017-12-04T01:26:18.664Z,1012.48
2017-12-04T01:27:18.685Z,1012.51
2017-12-04T01:28:18.706Z,1012.51
2017-12-04T01:29:18.721Z,1012.53
2017-12-04T01:30:18.727Z,1012.61
2017-12-04T01:31:18.744Z,1012.53
2017-12-04T01:32:18.768Z,1012.44
2017-12-04T01:33:18.775Z,1012.51
2017-12-04T01:34:18.797Z,1012.49
2017-12-04T01:35:18.803Z,1012.48
2017-12-04T01:36:18.828Z,1012.4
2017-12-04T01:37:18.840Z,1012.32
2017-12-04T01:38:18.858Z,1012.29
2017-12-04T01:39:18.874Z,1012.28
2017-12-04T01:41:18.905Z,1012.15
2017-12-04T01:42:18.914Z,1012.07
2017-12-04T01:43:18.929Z,1012.03
2017-12-04T01:44:18.946Z,1012
2017-12-04T01:45:18.966Z,1012.06
2017-12-04T01:46:18.972Z,1012.02
2017-12-04T01:47:18.986Z,1011.98
2017-12-04T01:48:19.001Z,1012.01
2017-12-04T01:49:19.016Z,1011.99
2017-12-04T01:50:19.042Z,1012.01
2017-12-04T01:51:19.056Z,1011.9
2017-12-04T01:52:19.073Z,1011.95
2017-12-04T01:53:19.085Z,1012.03
2017-12-04T01:54:19.096Z,1012.04
2017-12-04T01:55:19.114Z,1011.99
2017-12-04T01:57:19.146Z,1012.08
2017-12-04T01:58:19.165Z,1012.06
2017-12-04T01:59:19.170Z,1012.07
2017-12-04T02:00:19.191Z,1012.06
2017-12-04T02:01:19.205Z,1012.1
2017-12-04T02:02:19.215Z,1012.11
2017-12-04T02:03:19.241Z,1012.16
2017-12-04T02:04:19.252Z,1012.19
2017-12-04T02:05:19.272Z,1012.14
2017-12-04T02:06:19.292Z,1012.11
2017-12-04T02:07:19.303Z,1012.15
2017-12-04T02:08:19.306Z,1012.14
2017-12-04T02:09:19.328Z,1012.12
2017-12-04T02:10:19.349Z,1012.13
2017-12-04T02:11:19.352Z,1012.1
2017-12-04T02:13:19.389Z,1012.06
2017-12-04T02:14:19.405Z,1012.08
2017-12-04T02:15:19.424Z,1012.04
2017-12-04T02:16:19.434Z,1012.06
2017-12-04T02:17:19.456Z,1012.07
2017-12-04T02:18:19.463Z,1012.03
2017-12-04T02:19:19.480Z,1012
2017-12-04T02:20:19.502Z,1012.02
2017-12-04T02:21:19.507Z,1012
2017-12-04T02:22:19.527Z,1012.01
2017-12-04T02:23:19.539Z,1011.97
2017-12-04T02:24:19.557Z,1011.94
2017-12-04T02:25:19.578Z,1011.99
2017-12-04T02:26:19.583Z,1011.98
2017-12-04T02:28:19.626Z,1011.98
2017-12-04T02:29:19.639Z,1011.99
2017-12-04T02:30:19.662Z,1011.94
2017-12-04T02:31:19.668Z,1011.92
2017-12-04T02:32:19.676Z,1011.83
2017-12-04T02:33:19.697Z,1011.81
2017-12-04T02:34:19.707Z,1011.81
2017-12-04T02:35:19.733Z,1011.77
2017-12-04T02:36:19.748Z,1011.83
2017-12-04T02:37:19.756Z,1011.78
2017-12-04T02:38:19.778Z,1011.86
2017-12-04T02:39:19.784Z,1011.75
2017-12-04T02:40:19.809Z,1011.81
2017-12-04T02:41:19.824Z,1011.75
2017-12-04T02:42:19.842Z,1011.73
2017-12-04T02:43:19.852Z,1011.74
2017-12-04T02:44:19.861Z,1011.71
2017-12-04T02:45:20.554Z,1011.68
2017-12-04T02:46:19.891Z,1011.72
2017-12-04T02:47:19.906Z,1011.76
2017-12-04T02:48:19.921Z,1011.73
2017-12-04T02:49:19.943Z,1011.72
2017-12-04T02:50:19.964Z,1011.64
2017-12-04T02:51:19.971Z,1011.71
2017-12-04T02:52:19.990Z,1011.75
2017-12-04T02:53:20.006Z,1011.75
2017-12-04T02:54:20.018Z,1011.71
2017-12-04T02:55:20.040Z,1011.73
2017-12-04T02:56:20.050Z,1011.73
2017-12-04T02:57:20.064Z,1011.73
2017-12-04T02:58:20.085Z,1011.72
2017-12-04T03:00:20.111Z,1011.68
2017-12-04T03:01:20.128Z,1011.76
2017-12-04T03:02:20.136Z,1011.71
2017-12-04T03:03:20.159Z,1011.75
2017-12-04T03:04:20.174Z,1011.8
2017-12-04T03:05:20.188Z,1011.72
2017-12-04T03:06:20.209Z,1011.69
2017-12-04T03:07:20.220Z,1011.76
2017-12-04T03:08:20.240Z,1011.74
2017-12-04T03:09:20.254Z,1011.74
2017-12-04T03:10:20.267Z,1011.66
2017-12-04T03:11:20.276Z,1011.71
2017-12-04T03:12:20.298Z,1011.66
2017-12-04T03:13:20.313Z,1011.69
2017-12-04T03:14:20.328Z,1011.62
2017-12-04T03:16:20.353Z,1011.7
2017-12-04T03:17:20.369Z,1011.65
2017-12-04T03:18:20.390Z,1011.64
2017-12-04T03:19:20.410Z,1011.68
2017-12-04T03:20:20.421Z,1011.63
2017-12-04T03:21:20.437Z,1011.67
2017-12-04T03:22:20.453Z,1011.61
2017-12-04T03:23:20.467Z,1011.58
2017-12-04T03:24:20.486Z,1011.56
2017-12-04T03:25:20.496Z,1011.55
2017-12-04T03:26:20.511Z,1011.55
2017-12-04T03:27:20.530Z,1011.57
2017-12-04T03:28:20.548Z,1011.55
2017-12-04T03:29:20.565Z,1011.51
2017-12-04T03:30:20.571Z,1011.5
2017-12-04T03:32:20.606Z,1011.46
2017-12-04T03:33:20.625Z,1011.47
2017-12-04T03:34:20.634Z,1011.52
2017-12-04T03:35:20.650Z,1011.48
2017-12-04T03:36:20.668Z,1011.45
2017-12-04T03:37:20.678Z,1011.41
2017-12-04T03:38:20.697Z,1011.46
2017-12-04T03:39:20.708Z,1011.52
2017-12-04T03:40:20.723Z,1011.51
2017-12-04T03:41:20.739Z,1011.53
2017-12-04T03:42:20.760Z,1011.59
2017-12-04T03:43:20.777Z,1011.55
2017-12-04T03:44:20.796Z,1011.49
2017-12-04T03:45:20.808Z,1011.57
2017-12-04T03:46:20.823Z,1011.55
2017-12-04T03:48:20.851Z,1011.6
2017-12-04T03:49:20.868Z,1011.64
2017-12-04T03:50:20.879Z,1011.59
2017-12-04T03:51:20.894Z,1011.62
2017-12-04T03:52:21.011Z,1011.62
2017-12-04T03:53:20.934Z,1011.62
2017-12-04T03:54:20.941Z,1011.64
2017-12-04T03:55:20.969Z,1011.58
2017-12-04T03:56:20.976Z,1011.54
2017-12-04T03:57:20.994Z,1011.6
2017-12-04T03:58:21.007Z,1011.51
2017-12-04T03:59:21.030Z,1011.52
2017-12-04T04:00:21.045Z,1011.47
2017-12-04T04:01:21.055Z,1011.48
2017-12-04T04:03:21.088Z,1011.47
2017-12-04T04:04:21.107Z,1011.51
2017-12-04T04:05:21.123Z,1011.42
2017-12-04T04:06:21.129Z,1011.47
2017-12-04T04:07:21.150Z,1011.45
2017-12-04T04:08:21.161Z,1011.36
2017-12-04T04:09:21.180Z,1011.37
2017-12-04T04:10:21.196Z,1011.42
2017-12-04T04:11:21.211Z,1011.45
2017-12-04T04:12:21.223Z,1011.4
2017-12-04T04:13:21.244Z,1011.4
2017-12-04T04:14:21.258Z,1011.41
2017-12-04T04:15:21.276Z,1011.43
2017-12-04T04:16:21.291Z,1011.45
2017-12-04T04:17:21.302Z,1011.47
2017-12-04T04:18:21.326Z,1011.44
2017-12-04T04:19:21.335Z,1011.57
2017-12-04T04:20:21.354Z,1011.44
2017-12-04T04:21:21.364Z,1011.5
2017-12-04T04:22:21.388Z,1011.51
2017-12-04T04:23:21.406Z,1011.59
2017-12-04T04:24:21.415Z,1011.53
2017-12-04T04:25:21.426Z,1011.62
2017-12-04T04:26:21.448Z,1011.64
2017-12-04T04:27:21.468Z,1011.64
2017-12-04T04:28:21.478Z,1011.64
2017-12-04T04:29:21.500Z,1011.67
2017-12-04T04:30:21.506Z,1011.64
2017-12-04T04:31:21.525Z,1011.69
2017-12-04T04:32:21.539Z,1011.62
2017-12-04T04:33:21.551Z,1011.56
2017-12-04T04:35:21.592Z,1011.62
2017-12-04T04:36:21.605Z,1011.64
2017-12-04T04:37:21.617Z,1011.57
2017-12-04T04:38:21.629Z,1011.54
2017-12-04T04:39:21.645Z,1011.52
2017-12-04T04:40:21.662Z,1011.52
2017-12-04T04:41:21.683Z,1011.49
2017-12-04T04:42:21.703Z,1011.43
2017-12-04T04:43:21.714Z,1011.4
2017-12-04T04:44:21.723Z,1011.37
2017-12-04T04:45:21.746Z,1011.5
2017-12-04T04:46:21.767Z,1011.52
2017-12-04T04:47:21.779Z,1011.5
2017-12-04T04:48:21.794Z,1011.59
2017-12-04T04:49:21.810Z,1011.54
2017-12-04T04:51:21.850Z,1011.61
2017-12-04T04:52:21.851Z,1011.54
2017-12-04T04:53:21.866Z,1011.6
2017-12-04T04:54:21.889Z,1011.57
2017-12-04T04:55:21.903Z,1011.63
2017-12-04T04:56:22.023Z,1011.69
2017-12-04T04:57:21.928Z,1011.7
2017-12-04T04:58:21.957Z,1011.73
2017-12-04T04:59:21.971Z,1011.82
2017-12-04T05:00:21.979Z,1011.72
2017-12-04T05:01:22.003Z,1011.73
2017-12-04T05:02:22.009Z,1011.75
2017-12-04T05:03:22.027Z,1011.7
2017-12-04T05:04:22.044Z,1011.71
2017-12-04T05:05:22.066Z,1011.71
2017-12-04T05:07:22.090Z,1011.74
2017-12-04T05:08:22.112Z,1011.81
2017-12-04T05:09:22.128Z,1011.75
2017-12-04T05:10:22.143Z,1011.77
2017-12-04T05:11:22.150Z,1011.71
2017-12-04T05:12:22.172Z,1011.67
2017-12-04T05:13:22.181Z,1011.72
2017-12-04T05:14:22.207Z,1011.67
2017-12-04T05:15:22.218Z,1011.68
2017-12-04T05:16:22.274Z,1011.61
2017-12-04T05:17:22.250Z,1011.72
2017-12-04T05:18:22.260Z,1011.65
2017-12-04T05:19:22.283Z,1011.72
2017-12-04T05:20:22.296Z,1011.72
2017-12-04T05:21:22.307Z,1011.76
2017-12-04T05:23:22.344Z,1011.77
2017-12-04T05:24:22.360Z,1011.75
2017-12-04T05:25:22.375Z,1011.8
2017-12-04T05:26:22.387Z,1011.81
2017-12-04T05:27:22.402Z,1011.81
2017-12-04T05:28:22.429Z,1011.78
2017-12-04T05:29:22.434Z,1011.86
2017-12-04T05:30:22.457Z,1011.75
2017-12-04T05:31:22.469Z,1011.81
2017-12-04T05:32:22.487Z,1011.8
2017-12-04T05:33:22.502Z,1011.72
2017-12-04T05:34:22.524Z,1011.87
2017-12-04T05:35:22.534Z,1011.79
2017-12-04T05:36:22.549Z,1011.78
2017-12-04T05:38:22.589Z,1011.82
2017-12-04T05:39:22.593Z,1011.76
2017-12-04T05:40:22.614Z,1011.79
2017-12-04T05:41:22.625Z,1011.78
2017-12-04T05:42:22.648Z,1011.82
2017-12-04T05:43:22.665Z,1011.77
2017-12-04T05:44:22.671Z,1011.8
2017-12-04T05:45:22.707Z,1011.76
2017-12-04T05:46:22.703Z,1011.75
2017-12-04T05:47:22.730Z,1011.76
2017-12-04T05:48:22.745Z,1011.79
2017-12-04T05:49:22.758Z,1011.81
2017-12-04T05:50:22.772Z,1011.72
2017-12-04T05:51:22.794Z,1011.8
2017-12-04T05:52:22.810Z,1011.79
2017-12-04T05:53:22.815Z,1011.79
2017-12-04T05:54:22.829Z,1011.81
2017-12-04T05:55:22.846Z,1011.85
2017-12-04T05:56:22.872Z,1011.74
2017-12-04T05:57:22.887Z,1011.68
2017-12-04T05:58:22.897Z,1011.73
2017-12-04T05:59:22.909Z,1011.63
2017-12-04T06:00:22.932Z,1011.67
2017-12-04T06:01:22.945Z,1011.73
2017-12-04T06:02:22.966Z,1011.76
2017-12-04T06:03:22.976Z,1011.8
2017-12-04T06:04:22.989Z,1011.81
2017-12-04T06:05:23.010Z,1011.74
2017-12-04T06:06:23.026Z,1011.75
2017-12-04T06:07:23.045Z,1011.8
2017-12-04T06:08:23.055Z,1011.76
2017-12-04T06:10:23.088Z,1011.74
2017-12-04T06:11:23.102Z,1011.67
2017-12-04T06:12:23.117Z,1011.71
2017-12-04T06:13:23.134Z,1011.68
2017-12-04T06:14:23.151Z,1011.59
2017-12-04T06:15:23.172Z,1011.58
2017-12-04T06:16:23.178Z,1011.56
2017-12-04T06:17:23.192Z,1011.65
2017-12-04T06:18:23.219Z,1011.79
2017-12-04T06:19:23.229Z,1011.83
2017-12-04T06:20:23.251Z,1011.88
2017-12-04T06:21:23.257Z,1011.85
2017-12-04T06:22:23.278Z,1011.87
2017-12-04T06:23:23.292Z,1011.79
2017-12-04T06:24:23.308Z,1011.83
2017-12-04T06:26:23.343Z,1011.88
2017-12-04T06:27:23.355Z,1011.84
2017-12-04T06:28:23.371Z,1011.9
2017-12-04T06:29:23.390Z,1011.95
2017-12-04T06:30:23.411Z,1011.89
2017-12-04T06:31:23.419Z,1011.97
2017-12-04T06:32:23.441Z,1011.92
2017-12-04T06:33:23.457Z,1011.95
2017-12-04T06:34:23.466Z,1011.98
2017-12-04T06:35:23.482Z,1012.02
2017-12-04T06:36:23.494Z,1012.05
2017-12-04T06:37:23.521Z,1012.01
2017-12-04T06:38:23.529Z,1011.96
2017-12-04T06:39:23.541Z,1012.01
2017-12-04T06:40:23.564Z,1012.05
2017-12-04T06:42:23.598Z,1012.05
2017-12-04T06:43:23.610Z,1012.11
2017-12-04T06:44:23.627Z,1012.12
2017-12-04T06:45:23.641Z,1012.13
2017-12-04T06:46:23.652Z,1012.17
2017-12-04T06:47:23.671Z,1012.17
2017-12-04T06:48:23.687Z,1012.22
2017-12-04T06:49:23.705Z,1012.21
2017-12-04T06:50:23.724Z,1012.3
2017-12-04T06:51:23.736Z,1012.3
2017-12-04T06:52:23.752Z,1012.31
2017-12-04T06:53:23.772Z,1012.27
2017-12-04T06:54:23.785Z,1012.27
2017-12-04T06:55:23.801Z,1012.28
2017-12-04T06:56:23.813Z,1012.26
2017-12-04T06:58:23.842Z,1012.38
2017-12-04T06:59:23.857Z,1012.32
2017-12-04T07:00:23.876Z,1012.39
2017-12-04T07:01:23.892Z,1012.41
2017-12-04T07:02:23.922Z,1012.46
2017-12-04T07:03:23.926Z,1012.54
2017-12-04T07:04:23.946Z,1012.5
2017-12-04T07:05:23.963Z,1012.54
2017-12-04T07:06:23.968Z,1012.5
2017-12-04T07:07:23.988Z,1012.5
2017-12-04T07:08:23.998Z,1012.5
2017-12-04T07:09:24.018Z,1012.44
2017-12-04T07:10:24.041Z,1012.53
2017-12-04T07:11:24.058Z,1012.51
2017-12-04T07:13:24.084Z,1012.55
2017-12-04T07:14:24.105Z,1012.48
2017-12-04T07:15:24.110Z,1012.58
2017-12-04T07:16:24.132Z,1012.55
2017-12-04T07:17:24.143Z,1012.62
2017-12-04T07:18:24.164Z,1012.59
2017-12-04T07:19:24.179Z,1012.56
2017-12-04T07:20:24.195Z,1012.6
2017-12-04T07:21:24.204Z,1012.56
2017-12-04T07:22:24.226Z,1012.65
2017-12-04T07:23:24.248Z,1012.63
2017-12-04T07:24:24.257Z,1012.69
2017-12-04T07:25:24.278Z,1012.66
2017-12-04T07:26:24.289Z,1012.71
2017-12-04T07:27:24.304Z,1012.7
2017-12-04T07:28:24.317Z,1012.71
2017-12-04T07:29:24.337Z,1012.71
2017-12-04T07:30:24.351Z,1012.72
2017-12-04T07:31:24.370Z,1012.67
2017-12-04T07:32:24.385Z,1012.68
2017-12-04T07:33:24.399Z,1012.71
2017-12-04T07:34:24.422Z,1012.77
2017-12-04T07:35:24.437Z,1012.74
2017-12-04T07:36:24.446Z,1012.81
2017-12-04T07:37:24.558Z,1012.72
2017-12-04T07:38:24.485Z,1012.69
2017-12-04T07:39:24.500Z,1012.85
2017-12-04T07:40:24.517Z,1012.79
2017-12-04T07:41:24.529Z,1012.81
2017-12-04T07:42:24.543Z,1012.85
2017-12-04T07:43:24.564Z,1012.83
2017-12-04T07:45:24.590Z,1012.81
2017-12-04T07:46:24.607Z,1012.82
2017-12-04T07:47:24.626Z,1012.95
2017-12-04T07:48:24.636Z,1012.91
2017-12-04T07:49:24.657Z,1012.96
2017-12-04T07:50:24.666Z,1012.94
2017-12-04T07:51:24.683Z,1012.96
2017-12-04T07:52:24.713Z,1012.95
2017-12-04T07:53:24.716Z,1013.02
2017-12-04T07:54:24.731Z,1012.98
2017-12-04T07:55:24.754Z,1013.03
2017-12-04T07:56:24.763Z,1012.99
2017-12-04T07:57:24.780Z,1013.07
2017-12-04T07:58:24.801Z,1013.04
2017-12-04T07:59:24.820Z,1013.16
2017-12-04T08:01:24.855Z,1013.22
2017-12-04T08:02:24.856Z,1013.22
2017-12-04T08:03:24.869Z,1013.13
2017-12-04T08:04:24.891Z,1013.21
2017-12-04T08:05:24.900Z,1013.12
2017-12-04T08:06:24.921Z,1013.19
2017-12-04T08:07:24.938Z,1013.17
2017-12-04T08:08:24.954Z,1013.21
2017-12-04T08:09:24.974Z,1013.19
2017-12-04T08:10:24.988Z,1013.1
2017-12-04T08:11:25.004Z,1013.15
2017-12-04T08:12:25.018Z,1013.16
2017-12-04T08:13:25.040Z,1013.1
2017-12-04T08:14:25.055Z,1013.12
2017-12-04T08:15:25.060Z,1013.13
2017-12-04T08:17:25.097Z,1013.18
2017-12-04T08:18:25.110Z,1013.22
2017-12-04T08:19:25.129Z,1013.15
2017-12-04T08:20:25.151Z,1013.28
2017-12-04T08:21:25.158Z,1013.15
2017-12-04T08:22:25.179Z,1013.26
2017-12-04T08:23:25.195Z,1013.27
2017-12-04T08:24:25.206Z,1013.3
2017-12-04T08:25:25.232Z,1013.24
2017-12-04T08:26:25.245Z,1013.3
2017-12-04T08:27:25.254Z,1013.32
2017-12-04T08:28:25.273Z,1013.29
2017-12-04T08:29:25.302Z,1013.38
2017-12-04T08:30:25.303Z,1013.43
2017-12-04T08:31:25.325Z,1013.41
2017-12-04T08:33:25.351Z,1013.39
2017-12-04T08:34:25.379Z,1013.4
2017-12-04T08:35:25.394Z,1013.38
2017-12-04T08:36:25.410Z,1013.4
2017-12-04T08:37:25.420Z,1013.39
2017-12-04T08:38:25.432Z,1013.35
2017-12-04T08:39:25.452Z,1013.42
2017-12-04T08:40:25.470Z,1013.43
2017-12-04T08:41:25.488Z,1013.45
2017-12-04T08:42:25.496Z,1013.46
2017-12-04T08:43:25.527Z,1013.54
2017-12-04T08:44:25.541Z,1013.49
2017-12-04T08:45:25.556Z,1013.51
2017-12-04T08:46:25.575Z,1013.56
2017-12-04T08:48:25.607Z,1013.54
2017-12-04T08:49:25.615Z,1013.57
2017-12-04T08:50:25.638Z,1013.58
2017-12-04T08:51:25.656Z,1013.56
2017-12-04T08:52:25.669Z,1013.6
2017-12-04T08:53:25.678Z,1013.6
2017-12-04T08:54:25.695Z,1013.58
2017-12-04T08:55:25.711Z,1013.59
2017-12-04T08:56:25.737Z,1013.75
2017-12-04T08:57:25.755Z,1013.77
2017-12-04T08:58:25.761Z,1013.73
2017-12-04T08:59:25.783Z,1013.64
2017-12-04T09:00:25.794Z,1013.66
2017-12-04T09:01:25.833Z,1013.67
2017-12-04T09:02:25.832Z,1013.68
2017-12-04T09:03:25.854Z,1013.7
2017-12-04T09:04:25.872Z,1013.71
2017-12-04T09:05:25.883Z,1013.74
2017-12-04T09:06:25.999Z,1013.68
2017-12-04T09:07:25.912Z,1013.73
2017-12-04T09:08:25.933Z,1013.63
2017-12-04T09:09:25.954Z,1013.68
2017-12-04T09:10:25.960Z,1013.66
2017-12-04T09:11:25.978Z,1013.64
2017-12-04T09:12:26.005Z,1013.7
2017-12-04T09:13:26.016Z,1013.62
2017-12-04T09:14:26.038Z,1013.72
2017-12-04T09:15:26.048Z,1013.61
2017-12-04T09:16:26.063Z,1013.69
2017-12-04T09:17:26.088Z,1013.7
2017-12-04T09:18:26.099Z,1013.71
2017-12-04T09:20:26.132Z,1013.74
2017-12-04T09:21:26.149Z,1013.71
2017-12-04T09:22:26.162Z,1013.63
2017-12-04T09:23:26.185Z,1013.61
2017-12-04T09:24:26.198Z,1013.7
2017-12-04T09:25:26.210Z,1013.77
2017-12-04T09:26:26.236Z,1013.71
2017-12-04T09:27:26.245Z,1013.71
2017-12-04T09:28:26.265Z,1013.8
2017-12-04T09:29:26.280Z,1013.88
2017-12-04T09:30:26.296Z,1013.78
2017-12-04T09:31:26.311Z,1013.86
2017-12-04T09:32:26.325Z,1013.79
2017-12-04T09:33:26.351Z,1013.87
2017-12-04T09:34:26.359Z,1013.76
2017-12-04T09:36:26.391Z,1013.82
2017-12-04T09:37:26.412Z,1013.8
2017-12-04T09:38:26.420Z,1013.81
2017-12-04T09:39:26.449Z,1013.82
2017-12-04T09:40:26.460Z,1013.89
2017-12-04T09:41:26.470Z,1013.81
2017-12-04T09:42:26.492Z,1013.83
2017-12-04T09:43:26.504Z,1013.89
2017-12-04T09:44:26.530Z,1013.84
2017-12-04T09:45:26.540Z,1013.89
2017-12-04T09:46:26.558Z,1013.9
2017-12-04T09:47:26.568Z,1013.82
2017-12-04T09:48:26.590Z,1013.85
2017-12-04T09:49:26.605Z,1013.85
2017-12-04T09:50:26.622Z,1013.84
2017-12-04T09:52:26.649Z,1013.83
2017-12-04T09:53:26.667Z,1013.88
2017-12-04T09:54:26.694Z,1013.95
2017-12-04T09:55:26.702Z,1013.86
2017-12-04T09:56:26.724Z,1013.91
2017-12-04T09:57:26.742Z,1013.98
2017-12-04T09:58:26.755Z,1013.96
2017-12-04T09:59:26.771Z,1013.9
2017-12-04T10:00:26.791Z,1013.91
2017-12-04T10:01:26.797Z,1013.95
2017-12-04T10:02:26.824Z,1013.89
2017-12-04T10:03:26.833Z,1013.95
2017-12-04T10:04:26.851Z,1013.95
2017-12-04T10:05:26.863Z,1013.92
2017-12-04T10:06:26.882Z,1013.97
2017-12-04T10:08:26.912Z,1013.98
2017-12-04T10:09:26.934Z,1013.99
2017-12-04T10:10:26.945Z,1013.99
2017-12-04T10:11:26.983Z,1013.97
2017-12-04T10:12:26.987Z,1014.01
2017-12-04T10:13:26.999Z,1013.96
2017-12-04T10:14:27.015Z,1014
2017-12-04T10:15:27.033Z,1014.04
2017-12-04T10:16:27.053Z,1014.06
2017-12-04T10:17:27.064Z,1014
2017-12-04T10:18:27.073Z,1014.06
2017-12-04T10:19:27.096Z,1014.1
2017-12-04T10:20:27.113Z,1014.09
2017-12-04T10:21:27.130Z,1014.07
2017-12-04T10:23:27.160Z,1014.09
2017-12-04T10:24:27.176Z,1014.11
2017-12-04T10:25:27.188Z,1014.15
2017-12-04T10:26:27.216Z,1014.1
2017-12-04T10:27:27.226Z,1014.13
2017-12-04T10:28:27.242Z,1014.13
2017-12-04T10:29:27.256Z,1014.2
2017-12-04T10:30:27.284Z,1014.14
2017-12-04T10:31:27.293Z,1014.14
2017-12-04T10:32:27.303Z,1014.19
2017-12-04T10:33:27.318Z,1014.21
2017-12-04T10:34:27.343Z,1014.16
2017-12-04T10:35:27.347Z,1014.14
2017-12-04T10:36:27.370Z,1014.18
2017-12-04T10:37:27.380Z,1014.21
2017-12-04T10:38:27.397Z,1014.23
2017-12-04T10:39:27.414Z,1014.2
2017-12-04T10:40:27.433Z,1014.18
2017-12-04T10:41:27.454Z,1014.24
2017-12-04T10:42:27.469Z,1014.19
2017-12-04T10:43:27.486Z,1014.25
2017-12-04T10:44:27.505Z,1014.2
2017-12-04T10:45:27.515Z,1014.21
2017-12-04T10:46:27.529Z,1014.23
2017-12-04T10:47:27.549Z,1014.2
2017-12-04T10:48:27.566Z,1014.17
2017-12-04T10:49:27.576Z,1014.16
2017-12-04T10:50:27.623Z,1014.24
2017-12-04T10:51:27.647Z,1014.1
2017-12-04T10:52:27.619Z,1014.17
2017-12-04T10:53:27.642Z,1014.19
2017-12-04T10:55:27.672Z,1014.21
2017-12-04T10:56:27.685Z,1014.2
2017-12-04T10:57:27.707Z,1014.26
2017-12-04T10:58:27.722Z,1014.18
2017-12-04T10:59:27.741Z,1014.23
2017-12-04T11:00:27.754Z,1014.25
2017-12-04T11:01:27.773Z,1014.24
2017-12-04T11:02:27.786Z,1014.22
2017-12-04T11:03:27.803Z,1014.2
2017-12-04T11:04:27.822Z,1014.19
2017-12-04T11:05:27.839Z,1014.26
2017-12-04T11:06:27.856Z,1014.27
2017-12-04T11:07:27.872Z,1014.31
2017-12-04T11:08:27.876Z,1014.24
2017-12-04T11:09:27.899Z,1014.24
2017-12-04T11:11:27.933Z,1014.3
2017-12-04T11:12:27.953Z,1014.32
2017-12-04T11:13:27.968Z,1014.35
2017-12-04T11:14:27.986Z,1014.31
2017-12-04T11:15:27.994Z,1014.34
2017-12-04T11:16:28.014Z,1014.33
2017-12-04T11:17:28.028Z,1014.35
2017-12-04T11:18:28.045Z,1014.28
2017-12-04T11:19:28.056Z,1014.25
2017-12-04T11:20:28.075Z,1014.19
2017-12-04T11:21:28.099Z,1014.29
2017-12-04T11:22:28.111Z,1014.36
2017-12-04T11:23:28.130Z,1014.36
2017-12-04T11:24:28.143Z,1014.36
2017-12-04T11:25:28.157Z,1014.35
2017-12-04T11:27:28.195Z,1014.36
2017-12-04T11:28:28.211Z,1014.35
2017-12-04T11:29:28.228Z,1014.39
2017-12-04T11:30:28.239Z,1014.38
2017-12-04T11:31:28.250Z,1014.37
2017-12-04T11:32:28.267Z,1014.44
2017-12-04T11:33:28.294Z,1014.41
2017-12-04T11:34:28.299Z,1014.42
2017-12-04T11:35:28.318Z,1014.49
2017-12-04T11:36:28.345Z,1014.41
2017-12-04T11:37:28.358Z,1014.5
2017-12-04T11:38:28.369Z,1014.46
2017-12-04T11:39:28.381Z,1014.47
2017-12-04T11:40:28.396Z,1014.53
2017-12-04T11:41:28.416Z,1014.58
2017-12-04T11:43:28.447Z,1014.51
2017-12-04T11:44:28.461Z,1014.48
2017-12-04T11:45:28.483Z,1014.54
2017-12-04T11:46:28.502Z,1014.59
2017-12-04T11:47:28.521Z,1014.66
2017-12-04T11:48:28.530Z,1014.64
2017-12-04T11:49:28.549Z,1014.59
2017-12-04T11:50:28.561Z,1014.65
2017-12-04T11:51:28.577Z,1014.66
2017-12-04T11:52:28.600Z,1014.63
2017-12-04T11:53:28.621Z,1014.72
2017-12-04T11:54:28.632Z,1014.73
2017-12-04T11:55:28.654Z,1014.68
2017-12-04T11:56:28.669Z,1014.73
2017-12-04T11:58:28.700Z,1014.77
2017-12-04T11:59:28.710Z,1014.73
2017-12-04T12:00:28.735Z,1014.76
2017-12-04T12:01:28.745Z,1014.81
2017-12-04T12:02:28.763Z,1014.8
2017-12-04T12:03:28.790Z,1014.77
2017-12-04T12:04:28.806Z,1014.82
2017-12-04T12:05:28.824Z,1014.84
2017-12-04T12:06:28.839Z,1014.84
2017-12-04T12:07:28.846Z,1014.84
2017-12-04T12:08:28.871Z,1014.82
2017-12-04T12:09:28.882Z,1014.85
2017-12-04T12:10:28.904Z,1014.91
2017-12-04T12:11:28.924Z,1014.93
2017-12-04T12:12:28.943Z,1014.84
2017-12-04T12:13:28.959Z,1014.94
2017-12-04T12:14:28.970Z,1014.94
2017-12-04T12:15:28.989Z,1014.94
2017-12-04T12:16:29.006Z,1014.92
2017-12-04T12:17:29.022Z,1014.92
2017-12-04T12:18:29.042Z,1014.94
2017-12-04T12:19:29.058Z,1014.93
2017-12-04T12:20:29.073Z,1015.05
2017-12-04T12:21:29.091Z,1014.89
2017-12-04T12:22:29.112Z,1014.85
2017-12-04T12:23:29.121Z,1014.89
2017-12-04T12:24:29.145Z,1015.01
2017-12-04T12:25:29.164Z,1014.94
2017-12-04T12:26:29.178Z,1014.93
2017-12-04T12:27:29.200Z,1014.96
2017-12-04T12:28:29.208Z,1014.97
2017-12-04T12:30:29.251Z,1014.95
2017-12-04T12:31:29.259Z,1014.97
2017-12-04T12:32:29.279Z,1014.97
2017-12-04T12:33:29.297Z,1015.02
2017-12-04T12:34:29.311Z,1014.99
2017-12-04T12:35:29.329Z,1014.98
2017-12-04T12:36:29.352Z,1015.02
2017-12-04T12:37:29.369Z,1015
2017-12-04T12:38:29.377Z,1015.06
2017-12-04T12:39:29.394Z,1015.1
2017-12-04T12:40:29.421Z,1015.05
2017-12-04T12:41:29.432Z,1015.08
2017-12-04T12:42:29.450Z,1015.11
2017-12-04T12:43:29.465Z,1015.1
2017-12-04T12:44:29.483Z,1015.2
2017-12-04T12:46:29.520Z,1015.15
2017-12-04T12:47:29.535Z,1015.13
2017-12-04T12:48:29.557Z,1015.19
2017-12-04T12:49:29.568Z,1015.16